Dades meteomassalio
Diari Summary for Noviembre 19, 2017 Units:  English    Metric   Both
« Previous Day
Next Day »
Diari Semanal Mensual Anual Personalitzat
  Maxima: Minima: Mijana:
Temperatura: TemperatureC °F -2.2 °F 3.4 °F
Rosada: DewpointC °F -8.1 °F -2.8 °F
Humitat: Humidity % 31 % 67 %
Velocitat del vent: WindSpeedKMH mph 0.0 mph 2.8 mph
Racha vent: WindSpeedGustKMH mph - -
Vent:- - West
Pressio: PressurehPa in 1024.3 in -
Pluja: 0.0 in    
Historical Graphs
 
 
Tabular Data for Noviembre 19, 2017
Time Temperature Dew Point Pressure Wind Wind Speed Wind Gust Humidity Rainfall Rate (Hourly) solar Conditions
TemperatureC °F DewpointC °F PressurehPa in Calm     Humidity % HourlyPrecipMM in SolarRadiationWatts/m^2 W/m2 Conditions
00:00 0.6 °F -1.7 °F 1026.0 in Calm     85 % 0.0 in 0.0 W/m2 CLR
00:05 0.6 °F -2.0 °F 1026.0 in Calm     83 % 0.0 in 0.0 W/m2 CLR
00:10 0.6 °F -2.0 °F 1026.0 in Calm     83 % 0.0 in 0.0 W/m2 CLR
00:15 0.6 °F -1.7 °F 1026.0 in Calm     85 % 0.0 in 0.0 W/m2 CLR
00:20 0.6 °F -1.7 °F 1026.0 in Calm     85 % 0.0 in 0.0 W/m2 CLR
00:25 0.6 °F -1.7 °F 1026.0 in Calm     85 % 0.0 in 0.0 W/m2 CLR
00:30 0.6 °F -1.7 °F 1026.0 in Calm     85 % 0.0 in 0.0 W/m2 CLR
00:35 0.0 °F -2.4 °F 1026.0 in Calm     84 % 0.0 in 0.0 W/m2 CLR
00:40 0.0 °F -2.4 °F 1026.0 in Calm     84 % 0.0 in 0.0 W/m2 CLR
00:45 0.0 °F -2.2 °F 1025.6 in Calm     85 % 0.0 in 0.0 W/m2 CLR
00:50 -0.6 °F -2.8 °F 1025.6 in Calm     85 % 0.0 in 0.0 W/m2 CLR
00:55 -0.6 °F -2.8 °F 1025.6 in Calm     85 % 0.0 in 0.0 W/m2 CLR
01:00 -0.6 °F -2.6 °F 1025.6 in Calm     86 % 0.0 in 0.0 W/m2 CLR
01:05 -0.6 °F -2.6 °F 1025.6 in Calm     86 % 0.0 in 0.0 W/m2 CLR
01:10 -0.6 °F -2.4 °F 1025.6 in Calm     87 % 0.0 in 0.0 W/m2 CLR
01:15 -0.6 °F -2.6 °F 1025.6 in Calm     86 % 0.0 in 0.0 W/m2 CLR
01:20 -0.6 °F -2.8 °F 1025.6 in Calm     85 % 0.0 in 0.0 W/m2 CLR
01:25 0.0 °F -2.1 °F 1025.6 in Calm     86 % 0.0 in 0.0 W/m2 CLR
01:30 0.0 °F -2.1 °F 1025.3 in Calm     86 % 0.0 in 0.0 W/m2 CLR
01:35 0.0 °F -2.1 °F 1025.3 in Calm     86 % 0.0 in 0.0 W/m2 CLR
01:40 -0.6 °F -2.4 °F 1025.3 in Calm     87 % 0.0 in 0.0 W/m2 CLR
01:45 -0.6 °F -2.6 °F 1025.3 in Calm     86 % 0.0 in 0.0 W/m2 CLR
01:50 -0.6 °F -2.6 °F 1025.3 in Calm     86 % 0.0 in 0.0 W/m2 CLR
01:55 -0.6 °F -2.6 °F 1025.3 in Calm     86 % 0.0 in 0.0 W/m2 CLR
02:00 -1.1 °F -3.2 °F 1025.3 in Calm     86 % 0.0 in 0.0 W/m2 CLR
02:05 -1.1 °F -3.2 °F 1025.3 in Calm     86 % 0.0 in 0.0 W/m2 CLR
02:10 -1.1 °F -3.2 °F 1025.3 in Calm     86 % 0.0 in 0.0 W/m2 CLR
02:15 -1.1 °F -3.2 °F 1025.3 in Calm     86 % 0.0 in 0.0 W/m2 CLR
02:20 -1.1 °F -3.2 °F 1025.3 in Calm     86 % 0.0 in 0.0 W/m2 CLR
02:25 -1.1 °F -3.0 °F 1025.3 in Calm     87 % 0.0 in 0.0 W/m2 CLR
02:30 -1.1 °F -3.0 °F 1025.3 in Calm     87 % 0.0 in 0.0 W/m2 CLR
02:35 -1.1 °F -3.0 °F 1025.3 in Calm     87 % 0.0 in 0.0 W/m2 CLR
02:40 -1.1 °F -3.0 °F 1025.3 in Calm     87 % 0.0 in 0.0 W/m2 CLR
02:45 -1.1 °F -3.0 °F 1025.6 in Calm     87 % 0.0 in 0.0 W/m2 CLR
02:50 -1.1 °F -3.0 °F 1025.6 in Calm     87 % 0.0 in 0.0 W/m2 CLR
02:55 -1.1 °F -3.0 °F 1025.6 in Calm     87 % 0.0 in 0.0 W/m2 CLR
03:00 -1.1 °F -3.0 °F 1025.6 in Calm     87 % 0.0 in 0.0 W/m2 CLR
03:05 -1.1 °F -3.0 °F 1025.6 in Calm     87 % 0.0 in 0.0 W/m2 CLR
03:10 -1.1 °F -3.2 °F 1026.0 in Calm     86 % 0.0 in 0.0 W/m2 CLR
03:15 -1.1 °F -3.2 °F 1025.6 in Calm     86 % 0.0 in 0.0 W/m2 CLR
03:20 -1.1 °F -3.0 °F 1026.0 in Calm     87 % 0.0 in 0.0 W/m2 CLR
03:25 -1.1 °F -2.8 °F 1025.6 in Calm     88 % 0.0 in 0.0 W/m2 CLR
03:30 -1.1 °F -2.8 °F 1026.0 in Calm     88 % 0.0 in 0.0 W/m2 CLR
03:35 -1.1 °F -2.8 °F 1025.6 in Calm     88 % 0.0 in 0.0 W/m2 CLR
03:40 -1.1 °F -2.8 °F 1025.6 in Calm     88 % 0.0 in 0.0 W/m2 CLR
03:45 -1.1 °F -2.8 °F 1025.6 in Calm     88 % 0.0 in 0.0 W/m2 CLR
03:50 -1.1 °F -2.8 °F 1025.6 in Calm     88 % 0.0 in 0.0 W/m2 CLR
03:55 -1.1 °F -2.8 °F 1025.6 in Calm     88 % 0.0 in 0.0 W/m2 CLR
04:00 -1.1 °F -2.8 °F 1025.6 in Calm     88 % 0.0 in 0.0 W/m2 CLR
04:05 -1.1 °F -2.8 °F 1025.6 in Calm     88 % 0.0 in 0.0 W/m2 CLR
04:10 -1.7 °F -3.4 °F 1025.6 in Calm     88 % 0.0 in 0.0 W/m2 CLR
04:17 -1.7 °F -3.4 °F 1025.6 in Calm     88 % 0.0 in 0.0 W/m2 CLR
04:22 -1.7 °F -3.2 °F 1025.6 in Calm     89 % 0.0 in 0.0 W/m2 CLR
04:23 -1.7 °F -3.2 °F 1025.6 in Calm     89 % 0.0 in 0.0 W/m2 CLR
04:25 -1.7 °F -3.2 °F 1025.6 in Calm     89 % 0.0 in 0.0 W/m2 CLR
04:27 -1.7 °F -3.2 °F 1025.6 in Calm     89 % 0.0 in 0.0 W/m2 CLR
04:29 -1.7 °F -3.2 °F 1025.6 in Calm     89 % 0.0 in 0.0 W/m2 CLR
04:34 -2.2 °F -3.8 °F 1025.6 in Calm     89 % 0.0 in 0.0 W/m2 CLR
04:39 -2.2 °F -3.8 °F 1025.6 in Calm     89 % 0.0 in 0.0 W/m2 CLR
04:44 -1.7 °F -3.2 °F 1025.6 in Calm     89 % 0.0 in 0.0 W/m2 CLR
04:49 -1.7 °F -3.1 °F 1025.6 in Calm     90 % 0.0 in 0.0 W/m2 CLR
04:54 -1.7 °F -3.2 °F 1025.6 in Calm     89 % 0.0 in 0.0 W/m2 CLR
04:59 -2.2 °F -3.8 °F 1025.6 in Calm     89 % 0.0 in 0.0 W/m2 CLR
05:04 -2.2 °F -3.8 °F 1025.6 in Calm     89 % 0.0 in 0.0 W/m2 CLR
05:09 -2.2 °F -3.8 °F 1025.6 in Calm     89 % 0.0 in 0.0 W/m2 CLR
05:14 -2.2 °F -3.8 °F 1025.6 in Calm     89 % 0.0 in 0.0 W/m2 CLR
05:19 -1.7 °F -3.1 °F 1025.6 in Calm     90 % 0.0 in 0.0 W/m2 CLR
05:24 -1.7 °F -3.1 °F 1025.6 in Calm     90 % 0.0 in 0.0 W/m2 CLR
05:34 -1.1 °F -2.7 °F 1025.6 in Calm     89 % 0.0 in 0.0 W/m2 CLR
05:44 -1.1 °F -2.7 °F 1025.6 in Calm     89 % 0.0 in 0.0 W/m2 CLR
05:49 -1.1 °F -2.6 °F 1025.6 in Calm     90 % 0.0 in 0.0 W/m2 CLR
05:54 -1.1 °F -2.6 °F 1025.6 in Calm     90 % 0.0 in 0.0 W/m2 CLR
06:04 -1.7 °F -3.2 °F 1025.6 in Calm     89 % 0.0 in 0.0 W/m2 CLR
06:09 -1.7 °F -3.2 °F 1025.6 in Calm     89 % 0.0 in 0.0 W/m2 CLR
06:19 -1.7 °F -3.2 °F 1025.6 in Calm     89 % 0.0 in 0.0 W/m2 CLR
06:24 -1.7 °F -3.1 °F 1025.6 in Calm     90 % 0.0 in 0.0 W/m2 CLR
06:29 -1.7 °F -3.1 °F 1025.3 in Calm     90 % 0.0 in 0.0 W/m2 CLR
06:34 -1.7 °F -3.1 °F 1025.3 in Calm     90 % 0.0 in 0.0 W/m2 CLR
06:39 -1.7 °F -3.1 °F 1025.3 in Calm     90 % 0.0 in 0.0 W/m2 CLR
06:44 -1.7 °F -3.1 °F 1025.3 in Calm     90 % 0.0 in 0.0 W/m2 CLR
06:49 -1.7 °F -3.1 °F 1025.3 in Calm     90 % 0.0 in 0.0 W/m2 CLR
06:54 -1.7 °F -3.1 °F 1025.3 in Calm     90 % 0.0 in 0.0 W/m2 CLR
06:59 -1.7 °F -3.1 °F 1025.3 in Calm     90 % 0.0 in 0.0 W/m2 CLR
07:04 -1.7 °F -3.1 °F 1025.3 in Calm     90 % 0.0 in 0.0 W/m2 CLR
07:09 -1.7 °F -3.1 °F 1025.3 in Calm     90 % 0.0 in 0.0 W/m2 CLR
07:14 -1.7 °F -3.1 °F 1025.3 in Calm     90 % 0.0 in 0.0 W/m2 CLR
07:19 -1.7 °F -3.1 °F 1025.6 in Calm     90 % 0.0 in 0.0 W/m2 CLR
07:29 -1.7 °F -3.1 °F 1025.6 in Calm     90 % 0.0 in 0.0 W/m2 CLR
07:34 -2.2 °F -3.7 °F 1025.6 in Calm     90 % 0.0 in 0.0 W/m2 CLR
07:39 -1.7 °F -3.1 °F 1025.6 in Calm     90 % 0.0 in 0.0 W/m2 CLR
07:50 -1.7 °F -3.2 °F 1026.0 in Calm     89 % 0.0 in 5.0 W/m2 OVC
07:55 -1.7 °F -3.1 °F 1026.0 in Calm     90 % 0.0 in 7.0 W/m2 OVC
08:00 -1.7 °F -3.1 °F 1026.0 in Calm     90 % 0.0 in 11.0 W/m2 OVC
08:05 -1.7 °F -3.1 °F 1026.0 in Calm     90 % 0.0 in 12.0 W/m2 OVC
08:10 -1.7 °F -2.9 °F 1026.0 in Calm     91 % 0.0 in 16.0 W/m2 OVC
08:15 -1.7 °F -2.9 °F 1026.3 in Calm     91 % 0.0 in 18.0 W/m2 OVC
08:20 -1.7 °F -2.9 °F 1026.3 in Calm     91 % 0.0 in 23.0 W/m2 OVC
08:25 -1.7 °F -3.1 °F 1026.3 in Calm     90 % 0.0 in 30.0 W/m2 OVC
08:30 -1.7 °F -3.1 °F 1026.3 in Calm     90 % 0.0 in 35.0 W/m2 OVC
08:35 -1.7 °F -3.1 °F 1026.3 in Calm     90 % 0.0 in 39.0 W/m2 OVC
08:46 -1.1 °F -2.6 °F 1026.6 in Calm     90 % 0.0 in 47.0 W/m2 OVC
08:51 -1.1 °F -2.7 °F 1026.6 in Calm     89 % 0.0 in 60.0 W/m2 OVC
08:56 -1.1 °F -2.7 °F 1026.6 in Calm     89 % 0.0 in 76.0 W/m2 BKN
09:01 -0.6 °F -2.2 °F 1026.6 in Calm     89 % 0.0 in 74.0 W/m2 SCT
09:16 0.0 °F -1.8 °F 1026.6 in Calm     88 % 0.0 in 142.0 W/m2 CLR
09:21 0.0 °F -1.9 °F 1026.6 in Calm     87 % 0.0 in 162.0 W/m2 CLR
09:31 0.6 °F -1.7 °F 1027.0 in Calm     85 % 0.0 in 162.0 W/m2 CLR
09:36 0.6 °F -1.7 °F 1027.0 in Calm     85 % 0.0 in 220.0 W/m2 CLR
09:41 1.1 °F -1.3 °F 1027.0 in Calm     84 % 0.0 in 232.0 W/m2 CLR
09:46 1.7 °F -1.1 °F 1026.6 in Calm     82 % 0.0 in 250.0 W/m2 CLR
09:51 1.7 °F -1.4 °F 1026.6 in Calm     80 % 0.0 in 264.0 W/m2 CLR
10:01 2.8 °F -0.7 °F 1026.6 in Calm     78 % 0.0 in 287.0 W/m2 CLR
10:11 3.3 °F -0.5 °F 1027.0 in Calm     76 % 0.0 in 306.0 W/m2 CLR
10:16 3.9 °F -0.2 °F 1027.0 in Calm     75 % 0.0 in 318.0 W/m2 CLR
10:26 5.0 °F 0.4 °F 1027.0 in Calm     72 % 0.0 in 341.0 W/m2 CLR
10:31 5.6 °F 0.7 °F 1027.0 in Calm     71 % 0.0 in 350.0 W/m2 CLR
10:36 6.1 °F 0.7 °F 1026.6 in Calm     68 % 0.0 in 364.0 W/m2 CLR
10:42 6.7 °F 0.8 °F 1027.0 in North 13.0 mph 13.0 mph 66 % 0.0 in 373.0 W/m2 CLR
10:47 7.8 °F 0.7 °F 1027.0 in NW 18.5 mph 18.5 mph 61 % 0.0 in 381.0 W/m2 CLR
11:02 10.6 °F 2.6 °F 1027.0 in NW 14.8 mph 14.8 mph 58 % 0.0 in 404.0 W/m2 CLR
11:07 10.6 °F 2.4 °F 1027.0 in NW 14.8 mph 14.8 mph 57 % 0.0 in 413.0 W/m2 CLR
11:08 10.6 °F 2.4 °F 1027.0 in WNW 14.8 mph 14.8 mph 57 % 0.0 in 413.0 W/m2 CLR
11:13 11.1 °F 2.9 °F 1027.0 in NW 16.7 mph 16.7 mph 57 % 0.0 in 420.0 W/m2 CLR
11:23 11.7 °F 3.2 °F 1027.0 in NW 5.6 mph 5.6 mph 56 % 0.0 in 434.0 W/m2 CLR
11:28 11.7 °F 3.2 °F 1027.0 in NW 7.4 mph 7.4 mph 56 % 0.0 in 439.0 W/m2 CLR
11:33 11.7 °F 2.7 °F 1027.0 in North 11.1 mph 11.1 mph 54 % 0.0 in 448.0 W/m2 CLR
11:48 12.2 °F 2.4 °F 1026.6 in NW 16.7 mph 16.7 mph 51 % 0.0 in 462.0 W/m2 CLR
11:53 12.2 °F 2.4 °F 1026.6 in NW 20.4 mph 20.4 mph 51 % 0.0 in 468.0 W/m2 CLR
12:03 12.8 °F 2.1 °F 1026.6 in NNW 20.4 mph 20.4 mph 48 % 0.0 in 475.0 W/m2 CLR
12:08 12.8 °F 2.1 °F 1026.3 in NW 13.0 mph 13.0 mph 48 % 0.0 in 478.0 W/m2 CLR
12:13 12.8 °F 1.7 °F 1026.3 in NW 18.5 mph 18.5 mph 47 % 0.0 in 482.0 W/m2 CLR
12:23 12.8 °F 1.4 °F 1026.3 in NNE 16.7 mph 16.7 mph 46 % 0.0 in 487.0 W/m2 CLR
12:28 13.3 °F 1.6 °F 1026.3 in North 18.5 mph 18.5 mph 45 % 0.0 in 487.0 W/m2 CLR
12:38 13.3 °F 0.7 °F 1026.0 in NNW 16.7 mph 16.7 mph 42 % 0.0 in 489.0 W/m2 CLR
12:48 13.3 °F 1.0 °F 1026.0 in NNW 18.5 mph 18.5 mph 43 % 0.0 in 490.0 W/m2 CLR
12:53 13.3 °F 0.7 °F 1026.0 in NNW 16.7 mph 16.7 mph 42 % 0.0 in 490.0 W/m2 CLR
12:58 13.9 °F 1.2 °F 1026.0 in North 16.7 mph 16.7 mph 42 % 0.0 in 490.0 W/m2 CLR
13:03 13.9 °F 1.2 °F 1026.0 in NW 11.1 mph 11.1 mph 42 % 0.0 in 487.0 W/m2 CLR
13:08 13.9 °F 0.8 °F 1026.0 in NE 18.5 mph 18.5 mph 41 % 0.0 in 487.0 W/m2 CLR
13:13 14.4 °F 1.3 °F 1025.6 in North 19.3 mph 19.3 mph 41 % 0.0 in 485.0 W/m2 CLR
13:18 14.4 °F 1.7 °F 1025.6 in North 16.1 mph 16.1 mph 42 % 0.0 in 483.0 W/m2 CLR
13:23 14.4 °F 1.3 °F 1025.6 in NW 9.3 mph 9.3 mph 41 % 0.0 in 480.0 W/m2 CLR
13:33 14.4 °F 1.0 °F 1025.3 in NNW 19.3 mph 19.3 mph 40 % 0.0 in 473.0 W/m2 CLR
13:38 15.0 °F 1.5 °F 1025.3 in NW 18.5 mph 18.5 mph 40 % 0.0 in 471.0 W/m2 CLR
13:43 15.0 °F 1.5 °F 1025.3 in NNW 16.7 mph 16.7 mph 40 % 0.0 in 466.0 W/m2 CLR
13:48 15.0 °F 1.2 °F 1025.3 in NNW 20.4 mph 20.4 mph 39 % 0.0 in 461.0 W/m2 CLR
13:53 15.0 °F 0.4 °F 1025.3 in North 18.5 mph 18.5 mph 37 % 0.0 in 455.0 W/m2 CLR
14:03 15.0 °F 0.1 °F 1024.9 in NW 18.5 mph 18.5 mph 36 % 0.0 in 446.0 W/m2 CLR
14:08 15.0 °F 0.4 °F 1024.9 in Calm     37 % 0.0 in 439.0 W/m2 CLR
14:13 15.0 °F 0.1 °F 1024.9 in NNW 14.5 mph 14.5 mph 36 % 0.0 in 432.0 W/m2 CLR
14:18 15.0 °F 0.1 °F 1024.6 in NNW 16.7 mph 16.7 mph 36 % 0.0 in 425.0 W/m2 CLR
14:23 15.6 °F 0.9 °F 1024.6 in North 14.8 mph 14.8 mph 37 % 0.0 in 418.0 W/m2 CLR
14:28 15.6 °F 0.9 °F 1024.6 in North 18.5 mph 18.5 mph 37 % 0.0 in 411.0 W/m2 CLR
14:38 15.6 °F 1.3 °F 1024.6 in NNE 16.1 mph 16.1 mph 38 % 0.0 in 396.0 W/m2 CLR
14:43 16.1 °F 1.8 °F 1024.6 in North 14.8 mph 14.8 mph 38 % 0.0 in 387.0 W/m2 CLR
14:48 15.6 °F 1.7 °F 1024.6 in Calm     39 % 0.0 in 378.0 W/m2 CLR
14:53 15.6 °F 1.3 °F 1024.6 in North 14.5 mph 14.5 mph 38 % 0.0 in 371.0 W/m2 CLR
14:58 15.6 °F 0.9 °F 1024.6 in Calm     37 % 0.0 in 362.0 W/m2 CLR
15:03 15.6 °F 0.9 °F 1024.6 in Calm     37 % 0.0 in 352.0 W/m2 CLR
15:08 15.6 °F 0.1 °F 1024.6 in NW 11.3 mph 11.3 mph 35 % 0.0 in 345.0 W/m2 CLR
15:13 15.6 °F -0.3 °F 1024.6 in NNW 3.7 mph 3.7 mph 34 % 0.0 in 325.0 W/m2 CLR
15:18 16.1 °F -0.6 °F 1024.6 in NW 16.7 mph 16.7 mph 32 % 0.0 in 304.0 W/m2 CLR
15:23 16.1 °F -0.2 °F 1024.6 in NNW 16.7 mph 16.7 mph 33 % 0.0 in 308.0 W/m2 CLR
15:28 15.6 °F -1.1 °F 1024.6 in WNW 13.0 mph 13.0 mph 32 % 0.0 in 299.0 W/m2 CLR
15:38 16.1 °F -0.6 °F 1024.3 in NNW 11.1 mph 11.1 mph 32 % 0.0 in 279.0 W/m2 CLR
15:43 16.1 °F -0.2 °F 1024.6 in North 1.9 mph   33 % 0.0 in 262.0 W/m2 CLR
15:53 16.1 °F -1.1 °F 1024.3 in NW 1.9 mph   31 % 0.0 in 241.0 W/m2 CLR
16:13 14.4 °F -1.2 °F 1024.6 in Calm     34 % 0.0 in 176.0 W/m2 CLR
16:23 13.9 °F -1.7 °F 1024.6 in Calm     34 % 0.0 in 146.0 W/m2 CLR
16:24 13.9 °F -1.7 °F 1024.6 in Calm     34 % 0.0 in 142.0 W/m2 CLR
16:29 13.3 °F -2.6 °F 1024.6 in Calm     33 % 0.0 in 127.0 W/m2 CLR
16:39 12.8 °F -3.1 °F 1024.6 in Calm     33 % 0.0 in 91.0 W/m2 CLR
16:49 11.7 °F -3.7 °F 1024.6 in Calm     34 % 0.0 in 69.0 W/m2 FEW
16:54 10.6 °F -4.7 °F 1024.6 in Calm     34 % 0.0 in 58.0 W/m2 SCT
16:59 10.0 °F -4.8 °F 1024.6 in Calm     35 % 0.0 in 42.0 W/m2 BKN
17:04 9.4 °F -5.7 °F 1024.6 in Calm     34 % 0.0 in 33.0 W/m2 BKN
17:14 8.3 °F -6.7 °F 1024.6 in Calm     34 % 0.0 in 16.0 W/m2 BKN
17:19 8.3 °F -6.7 °F 1024.6 in Calm     34 % 0.0 in 12.0 W/m2 BKN
17:24 7.8 °F -7.1 °F 1024.6 in Calm     34 % 0.0 in 11.0 W/m2 BKN
17:29 7.2 °F -7.2 °F 1024.6 in Calm     35 % 0.0 in 9.0 W/m2 BKN
17:34 7.2 °F -6.9 °F 1024.6 in Calm     36 % 0.0 in 7.0 W/m2 BKN
17:39 6.7 °F -7.0 °F 1024.6 in Calm     37 % 0.0 in 5.0 W/m2 OVC
17:44 7.2 °F -6.2 °F 1024.6 in Calm     38 % 0.0 in 0.0 W/m2 OVC
17:54 7.2 °F -5.5 °F 1024.9 in Calm     40 % 0.0 in 0.0 W/m2 CLR
18:04 7.8 °F -4.3 °F 1024.9 in Calm     42 % 0.0 in 0.0 W/m2 CLR
18:09 7.2 °F -4.6 °F 1024.9 in Calm     43 % 0.0 in 0.0 W/m2 CLR
18:29 5.6 °F -4.6 °F 1025.3 in Calm     48 % 0.0 in 0.0 W/m2 CLR
18:34 5.0 °F -4.8 °F 1025.3 in Calm     49 % 0.0 in 0.0 W/m2 CLR
18:39 5.0 °F -4.6 °F 1025.3 in Calm     50 % 0.0 in 0.0 W/m2 CLR
18:44 4.4 °F -5.1 °F 1025.3 in Calm     50 % 0.0 in 0.0 W/m2 CLR
18:49 3.9 °F -5.6 °F 1025.3 in Calm     50 % 0.0 in 0.0 W/m2 CLR
18:54 3.9 °F -5.3 °F 1025.3 in Calm     51 % 0.0 in 0.0 W/m2 CLR
18:59 3.3 °F -5.6 °F 1025.6 in Calm     52 % 0.0 in 0.0 W/m2 CLR
19:04 3.3 °F -5.6 °F 1025.6 in Calm     52 % 0.0 in 0.0 W/m2 CLR
19:09 2.8 °F -6.1 °F 1025.6 in Calm     52 % 0.0 in 0.0 W/m2 CLR
19:14 2.8 °F -5.9 °F 1026.0 in Calm     53 % 0.0 in 0.0 W/m2 CLR
19:19 2.2 °F -6.4 °F 1026.0 in Calm     53 % 0.0 in 0.0 W/m2 CLR
19:34 1.1 °F -7.4 °F 1026.0 in Calm     53 % 0.0 in 0.0 W/m2 CLR
19:39 1.1 °F -7.4 °F 1026.0 in Calm     53 % 0.0 in 0.0 W/m2 CLR
19:49 0.6 °F -7.7 °F 1026.3 in Calm     54 % 0.0 in 0.0 W/m2 CLR
19:54 0.6 °F -7.4 °F 1026.3 in Calm     55 % 0.0 in 0.0 W/m2 CLR
19:59 0.6 °F -7.4 °F 1026.3 in Calm     55 % 0.0 in 0.0 W/m2 CLR
20:04 0.0 °F -8.0 °F 1026.3 in Calm     55 % 0.0 in 0.0 W/m2 CLR
20:09 0.0 °F -7.7 °F 1026.3 in Calm     56 % 0.0 in 0.0 W/m2 CLR
20:14 0.0 °F -7.5 °F 1026.3 in Calm     57 % 0.0 in 0.0 W/m2 CLR
20:25 -0.6 °F -8.1 °F 1026.3 in Calm     57 % 0.0 in 0.0 W/m2 CLR
20:35 -0.6 °F -7.8 °F 1026.3 in Calm     58 % 0.0 in 0.0 W/m2 CLR
20:40 -0.6 °F -7.8 °F 1026.3 in Calm     58 % 0.0 in 0.0 W/m2 CLR
20:45 -0.6 °F -7.8 °F 1026.3 in Calm     58 % 0.0 in 0.0 W/m2 CLR
20:55 -1.1 °F -8.1 °F 1026.6 in Calm     59 % 0.0 in 0.0 W/m2 CLR
21:00 -0.6 °F -7.6 °F 1026.6 in Calm     59 % 0.0 in 0.0 W/m2 CLR
21:05 -0.6 °F -7.6 °F 1026.6 in Calm     59 % 0.0 in 0.0 W/m2 CLR
21:10 -0.6 °F -7.4 °F 1026.6 in Calm     60 % 0.0 in 0.0 W/m2 CLR
21:15 0.0 °F -6.6 °F 1026.6 in Calm     61 % 0.0 in 0.0 W/m2 CLR
21:20 0.0 °F -6.8 °F 1026.6 in Calm     60 % 0.0 in 0.0 W/m2 CLR
21:25 0.6 °F -6.3 °F 1026.6 in Calm     60 % 0.0 in 0.0 W/m2 CLR
21:30 0.6 °F -6.3 °F 1026.6 in Calm     60 % 0.0 in 0.0 W/m2 CLR
21:40 0.0 °F -6.4 °F 1027.0 in Calm     62 % 0.0 in 0.0 W/m2 CLR
21:45 0.0 °F -6.2 °F 1026.6 in Calm     63 % 0.0 in 0.0 W/m2 CLR
22:00 -0.6 °F -6.6 °F 1026.6 in Calm     64 % 0.0 in 0.0 W/m2 CLR
22:05 -0.6 °F -6.3 °F 1026.6 in Calm     65 % 0.0 in 0.0 W/m2 CLR
22:10 -0.6 °F -6.3 °F 1027.0 in Calm     65 % 0.0 in 0.0 W/m2 CLR
22:15 0.0 °F -5.8 °F 1027.0 in Calm     65 % 0.0 in 0.0 W/m2 CLR
22:20 0.0 °F -5.8 °F 1027.0 in Calm     65 % 0.0 in 0.0 W/m2 CLR
22:25 0.6 °F -5.3 °F 1027.0 in Calm     65 % 0.0 in 0.0 W/m2 CLR
22:30 0.0 °F -5.6 °F 1027.0 in Calm     66 % 0.0 in 0.0 W/m2 CLR
22:35 0.0 °F -5.6 °F 1027.0 in Calm     66 % 0.0 in 0.0 W/m2 CLR
22:40 0.6 °F -4.9 °F 1027.0 in Calm     67 % 0.0 in 0.0 W/m2 CLR
22:45 0.6 °F -5.1 °F 1027.0 in Calm     66 % 0.0 in 0.0 W/m2 CLR
22:50 0.6 °F -5.1 °F 1027.0 in Calm     66 % 0.0 in 0.0 W/m2 CLR
22:55 0.0 °F -5.4 °F 1027.0 in Calm     67 % 0.0 in 0.0 W/m2 CLR
23:00 0.0 °F -5.2 °F 1027.0 in Calm     68 % 0.0 in 0.0 W/m2 CLR
23:15 -0.6 °F -5.3 °F 1027.0 in Calm     70 % 0.0 in 0.0 W/m2 CLR
23:20 -0.6 °F -5.3 °F 1027.0 in Calm     70 % 0.0 in 0.0 W/m2 CLR
23:25 -1.1 °F -5.9 °F 1027.0 in Calm     70 % 0.0 in 0.0 W/m2 CLR
23:30 -0.6 °F -5.3 °F 1027.0 in Calm     70 % 0.0 in 0.0 W/m2 CLR
23:35 -0.6 °F -5.2 °F 1027.0 in Calm     71 % 0.0 in 0.0 W/m2 CLR
23:40 -0.6 °F -5.2 °F 1027.3 in Calm     71 % 0.0 in 0.0 W/m2 CLR
23:45 -0.6 °F -5.3 °F 1027.0 in Calm     70 % 0.0 in 0.0 W/m2 CLR
23:55 -0.6 °F -5.6 °F 1027.0 in Calm     69 % 0.0 in 0.0 W/m2 CLR
Lo Temps de Massalio
Compliments of Weather Underground - 1 mb